Zele, Belgium
Current Conditions -  °F | °C
As of 6:20 AM on Sunday 26 Oct 2014 (Local Time) from EBAW Reporting Station
Overcast Overcast  
Wind Chill: 54°   Ceiling: 3700
Heat Index: 54°   Visibility: 6mi
Dew Point: 48°   Wind: 7mph
Humidity: 82%   Direction: 200°SSW
Pressure: 30.24"   Gusts: NA
Location:  51.07°N, 4.04°E
Report Text: EBAW 260420Z AUTO 20006KT 9999 OVC037/// 12/09 Q1024
Loading
Personal Weather Stations






























Interactive Weather Map
Tropical Storm Tracking
New forecast layout! Learn more

10-Day Weather Forecast

Advertisements
Track Severe Weather on mobile